createdAt,value
2023-02-18T00:01:34.232Z,28.95
2023-02-18T00:04:01.431Z,28.33
2023-02-18T00:06:31.040Z,28.60
2023-02-18T00:09:02.317Z,30.73
2023-02-18T00:11:31.991Z,31.45
2023-02-18T00:14:01.778Z,28.77
2023-02-18T00:16:29.861Z,27.90
2023-02-18T00:19:02.686Z,28.25
2023-02-18T00:21:30.479Z,28.42
2023-02-18T00:23:57.473Z,27.67
2023-02-18T00:26:25.004Z,25.45
2023-02-18T00:28:55.491Z,27.08
2023-02-18T00:31:25.130Z,25.98
2023-02-18T00:33:52.761Z,27.27
2023-02-18T00:36:22.666Z,25.83
2023-02-18T00:38:52.436Z,26.10
2023-02-18T00:41:21.065Z,27.00
2023-02-18T00:43:48.411Z,27.65
2023-02-18T00:46:16.252Z,27.92
2023-02-18T00:48:43.456Z,28.45
2023-02-18T00:51:11.140Z,29.70
2023-02-18T00:53:39.674Z,27.92
2023-02-18T00:56:07.771Z,27.63
2023-02-18T00:58:36.346Z,27.83
2023-02-18T01:01:07.546Z,27.95
2023-02-18T01:03:36.253Z,27.23
2023-02-18T01:06:05.446Z,27.92
2023-02-18T01:08:34.249Z,27.05
2023-02-18T01:11:01.313Z,25.15
2023-02-18T01:13:29.680Z,24.63
2023-02-18T01:15:57.191Z,24.40
2023-02-18T01:18:26.320Z,22.88
2023-02-18T01:20:53.679Z,21.85
2023-02-18T01:23:22.806Z,20.05
2023-02-18T01:25:50.260Z,19.15
2023-02-18T01:28:17.460Z,21.05
2023-02-18T01:30:45.133Z,20.17
2023-02-18T01:33:13.259Z,19.88
2023-02-18T01:35:40.949Z,21.42
2023-02-18T01:38:09.667Z,20.92
2023-02-18T01:40:44.207Z,22.33
2023-02-18T01:43:13.451Z,23.10
2023-02-18T01:46:01.143Z,25.17
2023-02-18T01:48:39.171Z,23.35
2023-02-18T01:51:33.647Z,26.08
2023-02-18T01:54:24.850Z,25.90
2023-02-18T01:57:18.269Z,31.58
2023-02-18T02:00:17.175Z,31.80
2023-02-18T02:02:48.271Z,30.40
2023-02-18T02:05:16.011Z,30.95
2023-02-18T02:07:44.652Z,30.63
2023-02-18T02:10:14.176Z,32.65
2023-02-18T02:13:12.077Z,33.10
2023-02-18T02:15:45.761Z,32.42
2023-02-18T02:18:39.438Z,29.85
2023-02-18T02:21:25.400Z,29.38
2023-02-18T02:23:54.290Z,28.63
2023-02-18T02:26:38.586Z,28.60
2023-02-18T02:29:24.440Z,26.00
2023-02-18T02:32:03.628Z,27.73
2023-02-18T02:35:07.951Z,27.55
2023-02-18T02:37:44.072Z,29.75
2023-02-18T02:40:35.350Z,29.60
2023-02-18T02:43:15.161Z,31.77
2023-02-18T02:45:56.937Z,32.22
2023-02-18T02:48:48.768Z,30.38
2023-02-18T02:51:44.250Z,31.48
2023-02-18T02:54:19.357Z,28.58
2023-02-18T02:56:47.114Z,30.27
2023-02-18T02:59:21.880Z,28.92
2023-02-18T03:02:27.922Z,28.20
2023-02-18T03:05:28.351Z,27.27
2023-02-18T03:08:02.095Z,26.73
2023-02-18T03:10:51.830Z,27.50
2023-02-18T03:13:40.665Z,26.50
2023-02-18T03:16:11.044Z,25.98
2023-02-18T03:18:48.438Z,24.20
2023-02-18T03:21:23.829Z,25.25
2023-02-18T03:24:15.706Z,22.90
2023-02-18T03:26:52.497Z,23.77
2023-02-18T03:29:21.727Z,23.85
2023-02-18T03:31:56.785Z,22.83
2023-02-18T03:34:36.774Z,25.42
2023-02-18T03:37:04.336Z,24.27
2023-02-18T03:39:35.356Z,22.65
2023-02-18T03:42:04.520Z,24.23
2023-02-18T03:44:32.344Z,23.15
2023-02-18T03:46:59.302Z,20.33
2023-02-18T03:49:26.288Z,19.10
2023-02-18T03:51:53.425Z,18.40
2023-02-18T03:54:21.109Z,16.90
2023-02-18T03:56:48.184Z,16.13
2023-02-18T03:59:15.413Z,17.15
2023-02-18T04:01:42.434Z,17.05
2023-02-18T04:04:12.782Z,18.52
2023-02-18T04:06:39.833Z,17.23
2023-02-18T04:09:09.172Z,17.98
2023-02-18T04:11:40.920Z,15.45
2023-02-18T04:14:09.125Z,15.43
2023-02-18T04:16:36.217Z,14.77
2023-02-18T04:19:03.505Z,13.23
2023-02-18T04:21:30.938Z,13.32
2023-02-18T04:23:57.923Z,11.43
2023-02-18T04:26:24.916Z,10.80
2023-02-18T04:28:52.397Z,8.32
2023-02-18T04:31:19.915Z,8.27
2023-02-18T04:33:48.182Z,7.95
2023-02-18T04:36:15.076Z,6.60
2023-02-18T04:38:43.991Z,5.57
2023-02-18T04:41:13.051Z,6.80
2023-02-18T04:43:40.037Z,6.05
2023-02-18T04:46:08.661Z,7.43
2023-02-18T04:48:35.895Z,7.32
2023-02-18T04:51:03.953Z,6.80
2023-02-18T04:53:31.425Z,7.07
2023-02-18T04:55:58.455Z,6.55
2023-02-18T04:58:25.849Z,5.80
2023-02-18T05:00:53.941Z,5.60
2023-02-18T05:03:21.398Z,5.55
2023-02-18T05:05:48.431Z,6.22
2023-02-18T05:08:16.627Z,6.03
2023-02-18T05:10:43.818Z,6.43
2023-02-18T05:13:10.897Z,5.97
2023-02-18T05:15:37.823Z,6.68
2023-02-18T05:18:05.187Z,7.30
2023-02-18T05:20:34.549Z,6.53
2023-02-18T05:23:01.803Z,6.38
2023-02-18T05:25:28.708Z,6.88
2023-02-18T05:27:55.789Z,6.28
2023-02-18T05:30:22.770Z,6.68
2023-02-18T05:32:49.879Z,6.70
2023-02-18T05:35:16.923Z,6.10
2023-02-18T05:37:43.974Z,5.97
2023-02-18T05:40:12.229Z,5.82
2023-02-18T05:42:39.328Z,7.00
2023-02-18T05:45:06.551Z,5.50
2023-02-18T05:47:36.077Z,5.15
2023-02-18T05:50:04.246Z,5.28
2023-02-18T05:52:31.183Z,5.82
2023-02-18T05:54:58.278Z,6.28
2023-02-18T05:57:25.765Z,6.45
2023-02-18T05:59:52.794Z,6.38
2023-02-18T06:02:20.111Z,5.93
2023-02-18T06:04:47.093Z,5.47
2023-02-18T06:07:15.577Z,4.95
2023-02-18T06:09:42.590Z,5.63
2023-02-18T06:12:09.621Z,5.70
2023-02-18T06:14:38.076Z,6.47
2023-02-18T06:17:05.333Z,5.75
2023-02-18T06:19:32.317Z,5.43
2023-02-18T06:21:59.573Z,6.18
2023-02-18T06:24:27.100Z,6.85
2023-02-18T06:26:54.084Z,6.50
2023-02-18T06:29:22.086Z,6.75
2023-02-18T06:31:49.285Z,5.82
2023-02-18T06:34:17.046Z,6.32
2023-02-18T06:36:45.473Z,6.90
2023-02-18T06:39:12.798Z,5.47
2023-02-18T06:41:40.642Z,5.82
2023-02-18T06:44:08.342Z,6.68
2023-02-18T06:46:35.849Z,5.70
2023-02-18T06:49:03.210Z,6.30
2023-02-18T06:51:30.426Z,6.38
2023-02-18T06:53:57.436Z,5.50
2023-02-18T06:56:24.779Z,5.35
2023-02-18T06:58:54.737Z,5.75
2023-02-18T07:01:21.966Z,6.43
2023-02-18T07:03:50.280Z,5.28
2023-02-18T07:06:17.592Z,6.03
2023-02-18T07:08:47.604Z,5.55
2023-02-18T07:11:14.894Z,5.18
2023-02-18T07:13:41.945Z,4.95
2023-02-18T07:16:09.378Z,6.10
2023-02-18T07:18:36.504Z,5.53
2023-02-18T07:21:05.269Z,5.43
2023-02-18T07:23:32.430Z,4.30
2023-02-18T07:26:11.141Z,5.03
2023-02-18T07:28:38.440Z,4.38
2023-02-18T07:31:07.092Z,4.65
2023-02-18T07:33:34.481Z,4.07
2023-02-18T07:36:03.771Z,4.32
2023-02-18T07:38:31.547Z,3.70
2023-02-18T07:40:59.881Z,3.65
2023-02-18T07:43:27.104Z,3.67
2023-02-18T07:45:54.998Z,4.35
2023-02-18T07:48:22.252Z,3.42
2023-02-18T07:50:49.259Z,3.65
2023-02-18T07:53:17.117Z,4.53
2023-02-18T07:55:50.206Z,3.60
2023-02-18T07:58:29.150Z,4.03
2023-02-18T08:00:56.501Z,3.83
2023-02-18T08:03:30.624Z,3.90
2023-02-18T08:05:58.845Z,3.78
2023-02-18T08:08:28.399Z,3.58
2023-02-18T08:11:01.044Z,3.13
2023-02-18T08:13:31.813Z,3.33
2023-02-18T08:15:58.935Z,3.92
2023-02-18T08:18:27.128Z,3.45
2023-02-18T08:20:54.288Z,3.28
2023-02-18T08:23:23.716Z,3.30
2023-02-18T08:25:52.619Z,3.22
2023-02-18T08:28:21.878Z,3.08
2023-02-18T08:30:52.006Z,2.67
2023-02-18T08:33:20.557Z,3.38
2023-02-18T08:35:49.187Z,2.92
2023-02-18T08:38:16.391Z,2.90
2023-02-18T08:40:43.406Z,2.70
2023-02-18T08:43:10.878Z,3.03
2023-02-18T08:45:44.269Z,2.83
2023-02-18T08:48:18.620Z,3.63
2023-02-18T08:50:48.333Z,2.58
2023-02-18T08:53:15.766Z,3.67
2023-02-18T08:55:43.401Z,3.03
2023-02-18T08:58:10.718Z,3.33
2023-02-18T09:00:38.710Z,2.42
2023-02-18T09:03:06.226Z,2.78
2023-02-18T09:05:33.302Z,2.80
2023-02-18T09:08:00.186Z,3.00
2023-02-18T09:10:27.163Z,3.05
2023-02-18T09:12:54.222Z,3.22
2023-02-18T09:15:21.708Z,3.20
2023-02-18T09:17:49.427Z,2.47
2023-02-18T09:20:16.658Z,2.90
2023-02-18T09:22:43.615Z,3.67
2023-02-18T09:25:10.780Z,3.00
2023-02-18T09:27:38.198Z,3.38
2023-02-18T09:30:06.536Z,3.10
2023-02-18T09:32:35.186Z,3.50
2023-02-18T09:35:04.217Z,3.45
2023-02-18T09:37:31.580Z,3.42
2023-02-18T09:40:00.268Z,3.67
2023-02-18T09:42:35.177Z,3.92
2023-02-18T09:45:07.404Z,3.95
2023-02-18T09:47:41.414Z,2.85
2023-02-18T09:50:30.781Z,4.05
2023-02-18T09:53:03.309Z,3.30
2023-02-18T09:55:36.370Z,3.33
2023-02-18T09:58:10.074Z,3.25
2023-02-18T10:00:43.470Z,3.22
2023-02-18T10:03:20.403Z,3.30
2023-02-18T10:06:10.076Z,3.33
2023-02-18T10:08:43.002Z,3.80
2023-02-18T10:11:18.571Z,3.13
2023-02-18T10:13:46.107Z,3.83
2023-02-18T10:16:17.850Z,4.43
2023-02-18T10:18:49.888Z,4.03
2023-02-18T10:21:21.120Z,4.07
2023-02-18T10:24:02.068Z,3.65
2023-02-18T10:26:31.625Z,3.30
2023-02-18T10:28:59.417Z,4.95
2023-02-18T10:31:34.333Z,4.57
2023-02-18T10:34:09.615Z,3.60
2023-02-18T10:36:42.696Z,3.72
2023-02-18T10:39:34.591Z,4.32
2023-02-18T10:42:29.668Z,4.28
2023-02-18T10:45:26.839Z,3.75
2023-02-18T10:48:22.353Z,4.15
2023-02-18T10:50:50.018Z,3.80
2023-02-18T10:53:39.153Z,3.83
2023-02-18T10:56:07.538Z,4.15
2023-02-18T10:58:46.206Z,4.20
2023-02-18T11:01:20.119Z,4.38
2023-02-18T11:03:50.297Z,4.05
2023-02-18T11:06:39.079Z,3.97
2023-02-18T11:09:07.215Z,3.78
2023-02-18T11:11:40.061Z,4.85
2023-02-18T11:14:08.915Z,4.45
2023-02-18T11:16:43.645Z,4.53
2023-02-18T11:19:36.243Z,3.97
2023-02-18T11:22:19.608Z,4.38
2023-02-18T11:24:50.616Z,4.05
2023-02-18T11:27:21.337Z,4.22
2023-02-18T11:29:52.546Z,4.18
2023-02-18T11:32:19.870Z,4.25
2023-02-18T11:34:49.379Z,4.43
2023-02-18T11:37:22.061Z,4.28
2023-02-18T11:39:53.062Z,4.00
2023-02-18T11:42:23.084Z,4.18
2023-02-18T11:44:56.599Z,5.53
2023-02-18T11:47:37.685Z,4.93
2023-02-18T11:50:10.454Z,4.28
2023-02-18T11:52:44.011Z,4.88
2023-02-18T11:55:20.942Z,4.65
2023-02-18T11:58:10.691Z,4.03
2023-02-18T12:00:39.943Z,4.55
2023-02-18T12:03:35.429Z,5.03
2023-02-18T12:06:06.307Z,5.30
2023-02-18T12:08:43.586Z,4.47
2023-02-18T12:11:23.441Z,5.47
2023-02-18T12:13:56.824Z,4.40
2023-02-18T12:16:40.708Z,4.80
2023-02-18T12:19:42.646Z,4.18
2023-02-18T12:22:38.258Z,4.97
2023-02-18T12:25:27.253Z,5.20
2023-02-18T12:28:09.719Z,4.22
2023-02-18T12:30:55.456Z,4.28
2023-02-18T12:33:40.087Z,5.53
2023-02-18T12:36:49.261Z,4.45
2023-02-18T12:39:54.197Z,4.95
2023-02-18T12:42:44.994Z,3.80
2023-02-18T12:45:34.240Z,4.03
2023-02-18T12:48:31.950Z,3.83
2023-02-18T12:51:18.005Z,4.63
2023-02-18T12:54:23.134Z,3.92
2023-02-18T12:57:06.444Z,3.55
2023-02-18T13:00:21.016Z,4.65
2023-02-18T13:03:20.756Z,3.70
2023-02-18T13:06:23.338Z,4.88
2023-02-18T13:09:23.298Z,4.82
2023-02-18T13:12:34.199Z,4.78
2023-02-18T13:15:14.062Z,4.82
2023-02-18T13:17:43.222Z,3.58
2023-02-18T13:20:45.224Z,3.45
2023-02-18T13:23:23.328Z,4.10
2023-02-18T13:26:00.787Z,3.65
2023-02-18T13:28:46.220Z,3.92
2023-02-18T13:31:47.454Z,4.78
2023-02-18T13:34:43.046Z,3.97
2023-02-18T13:37:16.366Z,4.37
2023-02-18T13:39:58.981Z,4.40
2023-02-18T13:42:34.516Z,5.13
2023-02-18T13:47:44.937Z,4.70
2023-02-18T13:50:27.295Z,4.00
2023-02-18T13:53:01.412Z,4.22
2023-02-18T13:55:40.641Z,4.20
2023-02-18T13:58:19.886Z,4.75
2023-02-18T14:00:53.705Z,4.90
2023-02-18T14:03:44.393Z,4.90
2023-02-18T14:06:17.865Z,5.45
2023-02-18T14:08:46.406Z,5.00
2023-02-18T14:11:13.773Z,4.25
2023-02-18T14:13:48.914Z,4.82
2023-02-18T14:16:16.452Z,4.32
2023-02-18T14:18:46.133Z,4.78
2023-02-18T14:21:13.142Z,5.18
2023-02-18T14:23:42.254Z,4.10
2023-02-18T14:26:22.187Z,4.85
2023-02-18T14:28:49.363Z,4.70
2023-02-18T14:31:16.370Z,5.15
2023-02-18T14:34:06.727Z,5.32
2023-02-18T14:36:46.158Z,5.43
2023-02-18T14:39:31.426Z,5.75
2023-02-18T14:42:17.507Z,4.70
2023-02-18T14:45:05.439Z,5.20
2023-02-18T14:48:01.446Z,5.93
2023-02-18T14:50:35.485Z,5.60
2023-02-18T14:53:18.802Z,5.05
2023-02-18T14:55:49.947Z,7.00
2023-02-18T14:58:23.031Z,5.50
2023-02-18T15:00:50.218Z,5.93
2023-02-18T15:03:22.463Z,5.43
2023-02-18T15:05:51.560Z,5.85
2023-02-18T15:08:21.636Z,4.53
2023-02-18T15:10:57.167Z,4.28
2023-02-18T15:13:42.719Z,4.95
2023-02-18T15:16:17.100Z,5.55
2023-02-18T15:18:51.856Z,4.88
2023-02-18T15:21:24.814Z,3.93
2023-02-18T15:23:52.398Z,5.05
2023-02-18T15:26:21.386Z,5.55
2023-02-18T15:29:00.431Z,4.93
2023-02-18T15:31:30.151Z,4.47
2023-02-18T15:33:58.022Z,4.35
2023-02-18T15:36:26.771Z,5.18
2023-02-18T15:38:56.646Z,5.18
2023-02-18T15:41:25.256Z,5.40
2023-02-18T15:44:05.986Z,5.53
2023-02-18T15:46:33.455Z,5.35
2023-02-18T15:49:01.370Z,5.28
2023-02-18T15:51:31.076Z,6.28
2023-02-18T15:54:02.778Z,5.72
2023-02-18T15:56:34.104Z,4.90
2023-02-18T15:59:19.767Z,5.30
2023-02-18T16:02:11.819Z,5.43
2023-02-18T16:04:41.507Z,6.03
2023-02-18T16:07:30.576Z,6.25
2023-02-18T16:10:20.284Z,5.50
2023-02-18T16:12:52.751Z,5.93
2023-02-18T16:15:38.643Z,5.57
2023-02-18T16:20:37.585Z,5.65
2023-02-18T16:23:15.169Z,5.00
2023-02-18T16:25:53.664Z,5.55
2023-02-18T16:28:28.689Z,5.97
2023-02-18T16:30:56.090Z,5.85
2023-02-18T16:33:23.381Z,5.90
2023-02-18T16:35:51.219Z,5.70
2023-02-18T16:38:24.253Z,6.70
2023-02-18T16:40:53.573Z,5.90
2023-02-18T16:43:25.914Z,7.13
2023-02-18T16:45:59.174Z,6.65
2023-02-18T16:48:38.651Z,7.35
2023-02-18T16:51:18.159Z,7.47
2023-02-18T16:53:45.753Z,7.35
2023-02-18T16:56:22.104Z,7.03
2023-02-18T16:58:50.726Z,6.80
2023-02-18T17:01:47.129Z,6.82
2023-02-18T17:04:20.107Z,6.28
2023-02-18T17:06:47.632Z,8.10
2023-02-18T17:09:22.215Z,6.03
2023-02-18T17:11:54.681Z,6.97
2023-02-18T17:14:23.141Z,6.32
2023-02-18T17:16:52.888Z,6.55
2023-02-18T17:19:20.654Z,5.95
2023-02-18T17:21:49.169Z,6.72
2023-02-18T17:24:19.044Z,7.70
2023-02-18T17:26:46.704Z,6.20
2023-02-18T17:29:14.096Z,7.10
2023-02-18T17:31:44.804Z,6.68
2023-02-18T17:34:19.353Z,6.75
2023-02-18T17:36:46.511Z,6.07
2023-02-18T17:39:15.752Z,6.20
2023-02-18T17:41:43.555Z,6.53
2023-02-18T17:44:22.399Z,6.22
2023-02-18T17:46:52.518Z,5.88
2023-02-18T17:49:19.645Z,6.72
2023-02-18T17:51:47.456Z,6.47
2023-02-18T17:54:20.344Z,6.50
2023-02-18T17:56:47.512Z,6.85
2023-02-18T17:59:14.622Z,6.28
2023-02-18T18:01:42.676Z,6.40
2023-02-18T18:04:18.781Z,8.18
2023-02-18T18:06:47.032Z,8.05
2023-02-18T18:09:14.208Z,8.48
2023-02-18T18:11:41.448Z,9.02
2023-02-18T18:14:11.847Z,10.43
2023-02-18T18:16:38.875Z,8.70
2023-02-18T18:19:06.087Z,10.15
2023-02-18T18:21:35.179Z,10.20
2023-02-18T18:24:02.853Z,11.32
2023-02-18T18:26:30.421Z,11.43
2023-02-18T18:28:57.456Z,11.65
2023-02-18T18:31:25.939Z,10.45
2023-02-18T18:33:53.854Z,11.50
2023-02-18T18:36:22.313Z,12.20
2023-02-18T18:38:49.569Z,13.05
2023-02-18T18:41:19.408Z,13.00
2023-02-18T18:43:46.770Z,12.32
2023-02-18T18:46:14.140Z,12.32
2023-02-18T18:48:41.502Z,11.32
2023-02-18T18:51:16.297Z,11.70
2023-02-18T18:53:43.657Z,12.63
2023-02-18T18:56:12.588Z,12.18
2023-02-18T18:58:39.999Z,11.55
2023-02-18T19:01:18.247Z,11.18
2023-02-18T19:03:49.218Z,12.02
2023-02-18T19:06:17.694Z,12.25
2023-02-18T19:08:47.933Z,11.10
2023-02-18T19:11:16.024Z,11.65
2023-02-18T19:13:43.502Z,10.98
2023-02-18T19:16:17.264Z,10.05
2023-02-18T19:18:44.829Z,9.93
2023-02-18T19:21:12.730Z,9.48
2023-02-18T19:23:41.741Z,9.20
2023-02-18T19:26:09.285Z,8.73
2023-02-18T19:28:36.588Z,9.90
2023-02-18T19:31:09.790Z,8.85
2023-02-18T19:33:39.384Z,8.85
2023-02-18T19:36:09.534Z,9.88
2023-02-18T19:38:36.862Z,9.30
2023-02-18T19:41:15.028Z,9.93
2023-02-18T19:43:44.138Z,10.35
2023-02-18T19:46:14.576Z,11.15
2023-02-18T19:48:42.533Z,10.05
2023-02-18T19:51:10.370Z,10.75
2023-02-18T19:53:37.975Z,10.43
2023-02-18T19:56:08.007Z,10.02
2023-02-18T19:58:36.405Z,8.77
2023-02-18T20:01:03.834Z,9.45
2023-02-18T20:03:30.971Z,8.90
2023-02-18T20:05:58.179Z,9.77
2023-02-18T20:08:25.242Z,9.48
2023-02-18T20:10:59.101Z,8.95
2023-02-18T20:13:27.055Z,9.50
2023-02-18T20:15:54.108Z,9.48
2023-02-18T20:18:21.565Z,9.45
2023-02-18T20:20:49.573Z,10.20
2023-02-18T20:23:16.524Z,9.85
2023-02-18T20:25:44.143Z,10.23
2023-02-18T20:28:11.225Z,10.43
2023-02-18T20:30:38.423Z,10.65
2023-02-18T20:33:05.859Z,10.35
2023-02-18T20:35:32.794Z,10.25
2023-02-18T20:38:00.054Z,10.73
2023-02-18T20:40:27.950Z,11.98
2023-02-18T20:42:54.972Z,10.40
2023-02-18T20:45:21.935Z,10.40
2023-02-18T20:47:49.418Z,10.57
2023-02-18T20:50:16.494Z,11.07
2023-02-18T20:52:44.376Z,10.38
2023-02-18T20:55:12.136Z,10.48
2023-02-18T20:57:39.717Z,11.25
2023-02-18T21:00:07.804Z,10.20
2023-02-18T21:02:34.858Z,11.85
2023-02-18T21:05:02.032Z,12.27
2023-02-18T21:07:29.287Z,11.07
2023-02-18T21:09:56.316Z,11.32
2023-02-18T21:12:23.261Z,10.90
2023-02-18T21:14:54.129Z,10.80
2023-02-18T21:17:22.371Z,10.13
2023-02-18T21:19:49.344Z,12.10
2023-02-18T21:22:16.442Z,11.65
2023-02-18T21:24:44.027Z,10.10
2023-02-18T21:27:11.129Z,10.32
2023-02-18T21:29:38.383Z,10.68
2023-02-18T21:32:05.754Z,9.80
2023-02-18T21:34:32.865Z,10.50
2023-02-18T21:36:59.821Z,9.68
2023-02-18T21:39:29.198Z,9.75
2023-02-18T21:41:57.331Z,9.38
2023-02-18T21:44:30.028Z,10.05
2023-02-18T21:47:03.633Z,11.20
2023-02-18T21:49:30.596Z,11.82
2023-02-18T21:51:58.244Z,11.95
2023-02-18T21:54:29.782Z,12.75
2023-02-18T21:56:58.155Z,12.98
2023-02-18T21:59:28.825Z,13.00
2023-02-18T22:01:57.474Z,12.20
2023-02-18T22:04:25.342Z,14.00
2023-02-18T22:06:52.736Z,13.15
2023-02-18T22:09:19.739Z,14.00
2023-02-18T22:11:46.767Z,14.05
2023-02-18T22:14:14.780Z,13.13
2023-02-18T22:16:42.558Z,12.70
2023-02-18T22:19:12.012Z,12.70
2023-02-18T22:21:39.546Z,11.95
2023-02-18T22:24:07.724Z,10.77
2023-02-18T22:26:34.808Z,10.60
2023-02-18T22:29:02.164Z,10.15
2023-02-18T22:31:31.139Z,10.55
2023-02-18T22:33:59.644Z,9.60
2023-02-18T22:36:28.150Z,9.85
2023-02-18T22:38:59.007Z,10.25
2023-02-18T22:41:27.672Z,9.50
2023-02-18T22:43:56.727Z,10.13
2023-02-18T22:46:24.103Z,9.82
2023-02-18T22:48:51.403Z,10.63
2023-02-18T22:51:25.150Z,10.35
2023-02-18T22:53:54.164Z,10.77
2023-02-18T22:56:22.500Z,9.55
2023-02-18T22:58:51.130Z,10.02
2023-02-18T23:01:24.130Z,10.88
2023-02-18T23:03:52.399Z,10.73
2023-02-18T23:06:21.253Z,12.32
2023-02-18T23:08:49.058Z,10.18
2023-02-18T23:11:18.487Z,10.07
2023-02-18T23:14:06.663Z,10.95
2023-02-18T23:16:54.578Z,9.40
2023-02-18T23:19:21.964Z,9.55
2023-02-18T23:21:49.139Z,8.63
2023-02-18T23:24:16.442Z,8.60
2023-02-18T23:26:43.632Z,8.13
2023-02-18T23:29:11.023Z,7.45
2023-02-18T23:31:38.295Z,7.03
2023-02-18T23:34:07.122Z,8.35
2023-02-18T23:36:36.113Z,7.65
2023-02-18T23:39:08.430Z,6.68
2023-02-18T23:41:36.710Z,6.43
2023-02-18T23:44:08.488Z,7.10
2023-02-18T23:46:37.320Z,7.38
2023-02-18T23:49:05.300Z,7.90
2023-02-18T23:51:33.284Z,6.65
2023-02-18T23:54:03.537Z,6.15
2023-02-18T23:56:31.022Z,6.22
2023-02-18T23:59:01.978Z,5.28
